Bingham Lake, MN

6:35 AM CST on December 08, 2016 (GMT -0600)
Windom Municipal

Weather History for KMWM - March, 2013

Change the Weather History Date:

Sunday, March 17, 2013

  Actual Average Record
Temperature  
Mean Temperature 19 °F -  
Max Temperature 30 °F 40 °F 114 °F (2011)
Min Temperature 8 °F 23 °F -11 °F (2011)
Degree Days  
Heating Degree Days 46    
Moisture  
Dew Point 15 °F    
Average Humidity 79    
Maximum Humidity 93    
Minimum Humidity 64    
Precipitation  
Precipitation 0.00 in - - ()
Sea Level Pressure  
Sea Level Pressure 30.00 in    
Wind  
Wind Speed 13 mph (ESE)    
Max Wind Speed 25 mph    
Max Gust Speed 33 mph    
Visibility 10 miles    
Events      
Averages and records for this station are not official NWS values.
T = Trace of Precipitation, MM = Missing Value Source: NWS Daily Summary

Daily Weather History Graph

Daily Weather History Graph

Search for Another Location

Airport or City:

Trip Planner

Search our weather history database for the weather conditions in past years. The results will help you decide how hot, cold, wet, or windy it might be!

Date:

Astronomy

Mar. 17, 2013 Rise Set
Actual Time 7:28 AM CDT 7:29 PM CDT
Civil Twilight 6:59 AM CDT 7:58 PM CDT
Nautical Twilight 6:26 AM CDT 8:31 PM CDT
Astronomical Twilight 5:52 AM CDT 9:06 PM CDT
Moon 10:30 AM CDT (3/17) 12:49 AM CDT (3/17)
Length of Visible Light 12h 58m
Length of Day
12h 00m
Waxing Crescent, 31% of the Moon is Illuminated
Mar 17
Waxing Crescent
Mar 19
First Quarter
Mar 27
Full
Apr 2
Last Quarter
Apr 10
New

Hourly Weather History & Observations

Time (CDT) Temp. Windchill Dew Point Humidity Pressure Visibility Wind Dir Wind Speed Gust Speed Precip Events Conditions
12:12 AM 12.2 °F -1.0 °F 8.6 °F 85% 30.22 in 10.0 mi NNW 10.4 mph - N/A   Clear
12:33 AM 12.2 °F -3.1 °F 6.8 °F 79% 30.22 in 10.0 mi NNW 13.8 mph - N/A   Clear
12:52 AM 10.4 °F -4.1 °F 6.8 °F 85% 30.22 in 10.0 mi NNW 11.5 mph - N/A   Clear
1:12 AM 12.2 °F 0.7 °F 8.6 °F 85% 30.22 in 10.0 mi North 8.1 mph - N/A   Clear
1:33 AM 10.4 °F -1.5 °F 6.8 °F 85% 30.21 in 10.0 mi NNW 8.1 mph - N/A   Clear
1:52 AM 10.4 °F -3.3 °F 6.8 °F 85% 30.20 in 10.0 mi North 10.4 mph - N/A   Clear
2:12 AM 10.4 °F -3.3 °F 6.8 °F 85% 30.21 in 10.0 mi North 10.4 mph - N/A   Clear
2:33 AM 10.4 °F -3.3 °F 6.8 °F 85% 30.20 in 10.0 mi North 10.4 mph - N/A   Clear
2:52 AM 10.4 °F -4.1 °F 5.0 °F 79% 30.19 in 10.0 mi North 11.5 mph - N/A   Clear
3:12 AM 10.4 °F -3.3 °F 5.0 °F 79% 30.18 in 10.0 mi North 10.4 mph - N/A   Clear
3:33 AM 10.4 °F -3.3 °F 5.0 °F 79% 30.17 in 10.0 mi NNE 10.4 mph - N/A   Clear
3:52 AM 8.6 °F -4.7 °F 5.0 °F 85% 30.16 in 10.0 mi NNE 9.2 mph - N/A   Clear
4:12 AM 8.6 °F -4.7 °F 5.0 °F 85% 30.16 in 10.0 mi NNE 9.2 mph - N/A   Clear
4:33 AM 8.6 °F -5.5 °F 3.2 °F 79% 30.15 in 10.0 mi NNE 10.4 mph - N/A   Clear
4:52 AM 8.6 °F -5.5 °F 3.2 °F 79% 30.15 in 10.0 mi NNE 10.4 mph - N/A   Clear
5:12 AM 8.6 °F -4.7 °F 3.2 °F 79% 30.15 in 10.0 mi NE 9.2 mph - N/A   Clear
5:33 AM 8.6 °F -4.7 °F 3.2 °F 79% 30.14 in 10.0 mi NE 9.2 mph - N/A   Mostly Cloudy
5:52 AM 8.6 °F -5.5 °F 3.2 °F 79% 30.14 in 10.0 mi NE 10.4 mph - N/A   Overcast
6:12 AM 8.6 °F -6.3 °F 3.2 °F 79% 30.14 in 10.0 mi ENE 11.5 mph - N/A   Mostly Cloudy
6:52 AM 8.6 °F -5.5 °F 5.0 °F 85% 30.13 in 10.0 mi ENE 10.4 mph - N/A   Clear
7:12 AM 8.6 °F -5.5 °F 5.0 °F 85% 30.12 in 10.0 mi ENE 10.4 mph - N/A   Clear
7:32 AM 10.4 °F -4.1 °F 5.0 °F 79% 30.12 in 10.0 mi East 11.5 mph - N/A   Clear
7:52 AM 10.4 °F -4.1 °F 6.8 °F 85% 30.12 in 10.0 mi East 11.5 mph - N/A   Mostly Cloudy
8:13 AM 10.4 °F -4.1 °F 6.8 °F 85% 30.11 in 10.0 mi East 11.5 mph - N/A   Overcast
8:32 AM 12.2 °F -1.0 °F 6.8 °F 79% 30.11 in 10.0 mi East 10.4 mph - N/A   Mostly Cloudy
8:52 AM 12.2 °F -2.5 °F 6.8 °F 79% 30.11 in 10.0 mi East 12.7 mph 16.1 mph N/A   Mostly Cloudy
9:13 AM 14.0 °F -0.8 °F 6.8 °F 73% 30.11 in 10.0 mi ESE 13.8 mph 18.4 mph N/A   Scattered Clouds
9:32 AM 15.8 °F 0.9 °F 8.6 °F 73% 30.11 in 10.0 mi ESE 15.0 mph - N/A   Scattered Clouds
9:52 AM 15.8 °F 1.4 °F 8.6 °F 73% 30.10 in 10.0 mi ESE 13.8 mph - N/A   Scattered Clouds
10:12 AM 17.6 °F 3.2 °F 10.4 °F 73% 30.10 in 10.0 mi ESE 15.0 mph 20.7 mph N/A   Scattered Clouds
10:32 AM 17.6 °F 3.2 °F 10.4 °F 73% 30.09 in 10.0 mi SE 15.0 mph 19.6 mph N/A   Scattered Clouds
11:12 AM 19.4 °F 5.0 °F 12.2 °F 74% 30.07 in 10.0 mi SE 16.1 mph 19.6 mph N/A   Scattered Clouds
11:33 AM 21.2 °F 7.3 °F 12.2 °F 68% 30.06 in 10.0 mi SE 16.1 mph 21.9 mph N/A   Mostly Cloudy
11:52 AM 21.2 °F 8.3 °F 12.2 °F 68% 30.05 in 10.0 mi SE 13.8 mph 23.0 mph N/A   Mostly Cloudy
12:12 PM 23.0 °F 9.6 °F 14.0 °F 68% 30.03 in 10.0 mi ESE 16.1 mph - N/A   Scattered Clouds
12:33 PM 24.8 °F 11.5 °F 14.0 °F 64% 30.03 in 10.0 mi SE 17.3 mph 20.7 mph N/A   Mostly Cloudy
12:52 PM 24.8 °F 11.9 °F 15.8 °F 69% 30.01 in 10.0 mi SE 16.1 mph - N/A   Scattered Clouds
1:12 PM 26.6 °F 15.7 °F 15.8 °F 64% 30.00 in 10.0 mi SE 12.7 mph 19.6 mph N/A   Scattered Clouds
1:33 PM 26.6 °F 13.4 °F 15.8 °F 64% 29.97 in 10.0 mi SE 18.4 mph - N/A   Mostly Cloudy
1:52 PM 28.4 °F 15.4 °F 17.6 °F 64% 29.94 in 10.0 mi ESE 19.6 mph 26.5 mph N/A   Scattered Clouds
2:12 PM 28.4 °F 16.6 °F 19.4 °F 69% 29.94 in 10.0 mi SE 16.1 mph 24.2 mph N/A   Clear
2:33 PM 28.4 °F 16.6 °F 19.4 °F 69% 29.94 in 10.0 mi SE 16.1 mph 23.0 mph N/A   Clear
2:52 PM 28.4 °F 18.0 °F 19.4 °F 69% 29.93 in 10.0 mi SE 12.7 mph 21.9 mph N/A   Scattered Clouds
3:12 PM 30.2 °F 19.3 °F 21.2 °F 69% 29.92 in 10.0 mi SE 15.0 mph 20.7 mph N/A   Mostly Cloudy
3:33 PM 30.2 °F 17.8 °F 21.2 °F 69% 29.91 in 10.0 mi SE 19.6 mph 23.0 mph N/A   Mostly Cloudy
3:52 PM 30.2 °F 18.9 °F 21.2 °F 69% 29.90 in 10.0 mi SE 16.1 mph 21.9 mph N/A   Overcast
4:12 PM 28.4 °F 16.2 °F 21.2 °F 74% 29.89 in 10.0 mi SE 17.3 mph 20.7 mph N/A   Overcast
4:33 PM 28.4 °F 16.6 °F 21.2 °F 74% 29.88 in 10.0 mi SE 16.1 mph - N/A   Mostly Cloudy
4:52 PM 28.4 °F 16.2 °F 21.2 °F 74% 29.87 in 10.0 mi SE 17.3 mph 25.3 mph N/A   Overcast
5:12 PM 28.4 °F 15.4 °F 23.0 °F 80% 29.85 in 10.0 mi ESE 19.6 mph 24.2 mph N/A   Overcast
5:33 PM 28.4 °F 15.8 °F 23.0 °F 80% 29.84 in 10.0 mi ESE 18.4 mph 26.5 mph N/A   Overcast
5:52 PM 28.4 °F 15.4 °F 23.0 °F 80% 29.82 in 10.0 mi SE 19.6 mph 33.4 mph N/A   Overcast
6:12 PM 28.4 °F 15.4 °F 24.8 °F 86% 29.82 in 10.0 mi ESE 19.6 mph 29.9 mph N/A   Overcast
6:33 PM 28.4 °F 15.4 °F 24.8 °F 86% 29.81 in 10.0 mi ESE 19.6 mph 28.8 mph N/A   Overcast
6:52 PM 28.4 °F 14.4 °F 24.8 °F 86% 29.81 in 10.0 mi SE 23.0 mph - N/A   Overcast
7:12 PM 28.4 °F 16.6 °F 24.8 °F 86% 29.82 in 10.0 mi SE 16.1 mph 24.2 mph N/A   Overcast
7:33 PM 28.4 °F 17.0 °F 24.8 °F 86% 29.82 in 10.0 mi SE 15.0 mph 24.2 mph N/A   Overcast
7:52 PM 28.4 °F 16.2 °F 24.8 °F 86% 29.82 in 10.0 mi SE 17.3 mph 26.5 mph N/A   Overcast
8:12 PM 30.2 °F 18.5 °F 24.8 °F 80% 29.82 in 10.0 mi SE 17.3 mph 24.2 mph N/A   Overcast
8:33 PM 30.2 °F 18.5 °F 24.8 °F 80% 29.82 in 10.0 mi SE 17.3 mph 20.7 mph N/A   Overcast
8:52 PM 30.2 °F 19.3 °F 24.8 °F 80% 29.81 in 10.0 mi SE 15.0 mph 23.0 mph N/A   Overcast
9:12 PM 30.2 °F 19.3 °F 26.6 °F 86% 29.80 in 10.0 mi SE 15.0 mph 19.6 mph N/A   Overcast
9:52 PM 30.2 °F 18.1 °F 26.6 °F 86% 29.78 in 10.0 mi SE 18.4 mph 25.3 mph N/A   Overcast
10:12 PM 30.2 °F 18.5 °F 26.6 °F 86% 29.78 in 10.0 mi SE 17.3 mph 24.2 mph N/A   Overcast
10:33 PM 30.2 °F 18.9 °F 26.6 °F 86% 29.78 in 10.0 mi SE 16.1 mph 23.0 mph N/A   Overcast
10:52 PM 30.2 °F 18.5 °F 26.6 °F 86% 29.77 in 10.0 mi SE 17.3 mph 26.5 mph N/A   Overcast
11:12 PM 30.2 °F 17.1 °F 28.4 °F 93% 29.73 in 10.0 mi SE 21.9 mph 29.9 mph N/A   Overcast
11:33 PM 30.2 °F 16.8 °F 26.6 °F 86% 29.72 in 10.0 mi SE 23.0 mph 31.1 mph N/A   Overcast
11:52 PM 30.2 °F 16.2 °F 26.6 °F 86% 29.70 in 10.0 mi SE 25.3 mph 32.2 mph N/A   Overcast